Time;durP1;ratioP1;P1;durP2;ratioP2;P2;SDS_P1;SDS_P2;PMS_P1;PMS_P2;Temp;Humidity;BMP_temperature;BMP_pressure;BME280_temperature;BME280_humidity;BME280_pressure;Samples;Min_cycle;Max_cycle;Signal;HPM_P1;HPM_P2
2022/04/15 00:01:40;;;;;;;80.40;52.53;;;19.50;58.60;;;;;;4949825;28;90989;-33
2022/04/15 00:04:06;;;;;;;79.88;52.63;;;19.60;58.60;;;;;;4945343;28;91108;-33
2022/04/15 00:06:35;;;;;;;79.90;52.63;;;19.50;58.60;;;;;;4967350;28;90377;-34
2022/04/15 00:09:01;;;;;;;79.72;52.97;;;19.50;58.50;;;;;;4953243;28;90960;-34
2022/04/15 00:11:29;;;;;;;80.22;52.35;;;19.50;58.60;;;;;;4956060;28;90165;-33
2022/04/15 00:13:55;;;;;;;79.18;52.65;;;19.50;58.60;;;;;;4951722;28;91583;-33
2022/04/15 00:16:21;;;;;;;79.10;52.45;;;19.50;58.60;;;;;;4956432;28;90002;-36
2022/04/15 00:18:47;;;;;;;80.05;52.58;;;19.50;58.60;;;;;;4945265;28;88908;-34
2022/04/15 00:21:13;;;;;;;79.80;52.80;;;19.50;58.60;;;;;;4942273;28;90194;-34
2022/04/15 00:23:38;;;;;;;80.88;52.88;;;19.50;58.60;;;;;;4946635;28;90541;-34
2022/04/15 00:26:05;;;;;;;80.30;52.35;;;19.50;58.60;;;;;;4951902;28;92360;-33
2022/04/15 00:28:31;;;;;;;81.53;52.75;;;19.40;59.00;;;;;;4955006;28;90548;-36
2022/04/15 00:30:57;;;;;;;79.03;52.25;;;19.40;58.60;;;;;;4954485;28;89810;-34
2022/04/15 00:33:23;;;;;;;78.93;52.35;;;19.40;58.60;;;;;;4950678;28;90348;-34
2022/04/15 00:35:49;;;;;;;80.20;52.60;;;19.40;58.60;;;;;;4949870;28;90121;-33
2022/04/15 00:38:15;;;;;;;79.57;52.33;;;19.40;58.60;;;;;;4952135;28;89739;-32
2022/04/15 00:40:40;;;;;;;79.60;52.42;;;19.40;58.60;;;;;;4950267;28;90412;-33
2022/04/15 00:43:06;;;;;;;80.40;53.05;;;19.40;58.60;;;;;;4951418;28;90356;-33
2022/04/15 00:45:32;;;;;;;80.25;52.58;;;19.30;58.60;;;;;;4949428;28;89911;-33
2022/04/15 00:47:59;;;;;;;79.60;52.80;;;19.30;58.60;;;;;;4950157;28;90440;-33
2022/04/15 00:50:27;;;;;;;78.88;52.53;;;19.30;58.60;;;;;;4944689;28;93841;-34
2022/04/15 00:52:55;;;;;;;80.38;53.20;;;19.30;58.60;;;;;;4949300;28;90847;-33
2022/04/15 00:55:24;;;;;;;79.25;52.47;;;19.30;58.50;;;;;;4949706;28;89651;-33
2022/04/15 00:57:56;;;;;;;81.40;53.08;;;19.30;58.60;;;;;;4952389;28;89720;-34
2022/04/15 01:00:22;;;;;;;79.18;52.95;;;19.30;58.60;;;;;;4945164;28;91029;-33
2022/04/15 01:02:48;;;;;;;80.15;53.33;;;19.30;58.70;;;;;;4948177;28;89962;-34
2022/04/15 01:05:15;;;;;;;80.75;53.03;;;19.30;58.70;;;;;;4941843;28;90017;-33
2022/04/15 01:07:46;;;;;;;79.60;53.05;;;19.20;58.60;;;;;;4950552;28;89085;-33
2022/04/15 01:10:13;;;;;;;79.13;52.83;;;19.30;58.60;;;;;;4953136;28;91035;-33
2022/04/15 01:12:40;;;;;;;81.25;53.25;;;19.20;58.60;;;;;;4949494;28;90000;-32
2022/04/15 01:15:09;;;;;;;80.05;52.88;;;19.20;58.60;;;;;;4942965;28;91163;-33
2022/04/15 01:17:35;;;;;;;79.40;52.95;;;19.20;58.60;;;;;;4946480;28;90180;-33
2022/04/15 01:20:03;;;;;;;80.40;53.13;;;19.20;58.50;;;;;;4948268;28;89981;-33
2022/04/15 01:22:35;;;;;;;78.80;53.00;;;19.20;58.60;;;;;;4945073;28;91315;-33
2022/04/15 01:25:01;;;;;;;78.75;52.53;;;19.20;58.60;;;;;;4949362;28;93236;-33
2022/04/15 01:27:31;;;;;;;80.05;53.40;;;19.20;58.70;;;;;;4948779;28;90360;-32
2022/04/15 01:29:57;;;;;;;80.03;53.13;;;19.10;58.60;;;;;;4958087;28;90005;-33
2022/04/15 01:32:23;;;;;;;80.45;52.85;;;19.20;58.60;;;;;;4947434;28;91914;-33
2022/04/15 01:34:48;;;;;;;79.63;53.17;;;19.20;58.60;;;;;;4955275;28;90093;-33
2022/04/15 01:37:16;;;;;;;79.55;52.40;;;19.20;58.60;;;;;;4948773;28;90000;-33
2022/04/15 01:39:43;;;;;;;81.03;53.03;;;19.10;58.60;;;;;;4955221;28;97290;-33
2022/04/15 01:42:13;;;;;;;80.05;53.13;;;19.10;58.60;;;;;;4954970;28;90925;-33
2022/04/15 01:44:40;;;;;;;79.00;53.10;;;19.10;58.60;;;;;;4956277;28;89986;-33
2022/04/15 01:47:06;;;;;;;80.55;52.75;;;19.10;58.60;;;;;;4955407;28;90093;-33
2022/04/15 01:49:32;;;;;;;80.25;53.13;;;19.10;58.60;;;;;;4946278;28;91711;-33
2022/04/15 01:51:57;;;;;;;79.82;53.25;;;19.10;58.60;;;;;;4946194;28;90529;-34
2022/04/15 01:54:23;;;;;;;78.85;52.78;;;19.10;58.60;;;;;;4943817;28;90066;-33
2022/04/15 01:56:49;;;;;;;78.88;52.70;;;19.10;58.60;;;;;;4953855;28;89027;-33
2022/04/15 01:59:15;;;;;;;78.55;52.45;;;19.10;58.60;;;;;;4945671;28;91212;-33
2022/04/15 02:01:40;;;;;;;80.13;52.58;;;19.10;58.60;;;;;;4950848;28;90626;-33
2022/04/15 02:04:06;;;;;;;79.25;52.97;;;19.10;58.60;;;;;;4944079;28;92041;-37
2022/04/15 02:06:32;;;;;;;80.40;53.33;;;19.10;58.70;;;;;;4949685;28;91073;-33
2022/04/15 02:08:58;;;;;;;80.07;53.03;;;19.10;58.60;;;;;;4947343;28;90071;-34
2022/04/15 02:11:23;;;;;;;79.07;53.03;;;19.00;58.60;;;;;;4952507;28;89837;-34
2022/04/15 02:13:49;;;;;;;80.43;53.42;;;19.00;58.60;;;;;;4952701;28;95816;-33
2022/04/15 02:16:15;;;;;;;79.75;53.15;;;19.00;58.50;;;;;;4957357;28;91391;-34
2022/04/15 02:18:40;;;;;;;78.88;52.92;;;19.00;58.50;;;;;;4947744;28;97236;-34
2022/04/15 02:21:06;;;;;;;80.95;53.80;;;19.00;58.50;;;;;;4945143;28;95369;-34
2022/04/15 02:23:32;;;;;;;79.72;53.60;;;19.00;58.60;;;;;;4950367;28;90376;-34
2022/04/15 02:25:57;;;;;;;80.72;53.15;;;19.00;58.50;;;;;;4942321;28;89934;-33
2022/04/15 02:28:23;;;;;;;80.32;53.45;;;19.00;58.60;;;;;;4951698;28;90652;-34
2022/04/15 02:30:49;;;;;;;79.35;52.95;;;19.00;58.60;;;;;;4953658;28;89991;-34
2022/04/15 02:33:15;;;;;;;79.38;53.05;;;19.00;58.50;;;;;;4950966;28;94337;-34
2022/04/15 02:35:41;;;;;;;79.45;53.15;;;19.00;58.60;;;;;;4947299;28;89872;-33
2022/04/15 02:38:07;;;;;;;79.75;52.97;;;19.00;58.50;;;;;;4951886;28;90305;-34
2022/04/15 02:40:32;;;;;;;79.40;52.67;;;19.00;58.60;;;;;;4954525;28;89717;-34
2022/04/15 02:43:00;;;;;;;79.85;52.95;;;19.00;58.50;;;;;;4955331;28;89697;-34
2022/04/15 02:45:28;;;;;;;80.20;53.33;;;18.90;58.50;;;;;;4952884;28;89026;-34
2022/04/15 02:47:53;;;;;;;79.07;52.92;;;18.90;58.60;;;;;;4952497;28;90317;-34
2022/04/15 02:50:19;;;;;;;80.45;53.35;;;18.90;58.60;;;;;;4947374;28;90492;-34
2022/04/15 02:52:45;;;;;;;80.82;53.30;;;19.00;58.60;;;;;;4949798;28;91485;-34
2022/04/15 02:55:11;;;;;;;82.22;53.92;;;18.90;58.40;;;;;;4949330;28;89726;-33
2022/04/15 02:57:37;;;;;;;81.05;53.55;;;18.90;58.40;;;;;;4950833;28;90515;-33
2022/04/15 03:00:04;;;;;;;79.60;53.10;;;18.90;58.50;;;;;;4950680;28;89752;-33
2022/04/15 03:02:33;;;;;;;81.72;53.53;;;18.90;58.50;;;;;;4949256;28;90276;-32
2022/04/15 03:05:00;;;;;;;80.40;53.85;;;18.90;58.60;;;;;;4950015;28;90093;-33
2022/04/15 03:07:25;;;;;;;80.25;53.42;;;18.90;58.50;;;;;;4952898;28;89874;-33
2022/04/15 03:09:51;;;;;;;78.80;53.33;;;18.90;58.50;;;;;;4943407;28;91129;-33
2022/04/15 03:12:17;;;;;;;79.65;53.70;;;18.90;58.50;;;;;;4951144;28;90034;-33
2022/04/15 03:14:43;;;;;;;80.38;54.13;;;18.90;58.50;;;;;;4933471;28;89843;-33
2022/04/15 03:17:08;;;;;;;79.30;53.42;;;18.80;58.40;;;;;;4950875;28;91415;-32
2022/04/15 03:19:34;;;;;;;80.53;53.95;;;18.90;58.50;;;;;;4944878;28;90576;-33
2022/04/15 03:22:00;;;;;;;80.72;53.50;;;18.90;58.50;;;;;;4947918;28;95305;-33
2022/04/15 03:24:26;;;;;;;79.38;53.33;;;18.90;58.40;;;;;;4951850;28;90469;-33
2022/04/15 03:26:51;;;;;;;80.80;54.50;;;18.80;58.40;;;;;;4950813;28;91013;-33
2022/04/15 03:29:17;;;;;;;80.30;53.42;;;18.80;58.50;;;;;;4944896;28;90419;-33
2022/04/15 03:31:43;;;;;;;79.97;53.65;;;18.80;58.40;;;;;;4952226;28;90199;-33
2022/04/15 03:34:09;;;;;;;81.07;53.65;;;18.80;58.50;;;;;;4953187;28;89295;-33
2022/04/15 03:36:34;;;;;;;80.22;54.35;;;18.80;58.40;;;;;;4949337;28;91209;-33
2022/04/15 03:39:00;;;;;;;80.80;53.95;;;18.80;58.40;;;;;;4952260;28;96028;-33
2022/04/15 03:41:26;;;;;;;81.78;54.55;;;18.80;58.40;;;;;;4952299;28;90713;-33
2022/04/15 03:43:52;;;;;;;82.28;54.45;;;18.80;58.40;;;;;;4951491;28;89658;-33
2022/04/15 03:46:18;;;;;;;79.50;53.60;;;18.80;58.30;;;;;;4951976;28;90160;-34
2022/04/15 03:48:44;;;;;;;81.55;54.95;;;18.80;58.40;;;;;;4948564;28;90833;-34
2022/04/15 03:51:11;;;;;;;80.47;53.55;;;18.80;58.50;;;;;;4947423;28;90355;-34
2022/04/15 03:53:37;;;;;;;81.78;54.88;;;18.80;58.40;;;;;;4954429;28;89953;-34
2022/04/15 03:56:04;;;;;;;81.80;53.72;;;18.80;58.50;;;;;;4951395;28;92719;-33
2022/04/15 03:58:29;;;;;;;81.25;54.50;;;18.80;58.50;;;;;;4953828;28;88857;-33
2022/04/15 04:00:55;;;;;;;81.97;54.88;;;18.80;58.30;;;;;;4952025;28;90300;-34
2022/04/15 04:03:21;;;;;;;80.55;53.72;;;18.80;58.40;;;;;;4956293;28;91104;-34
2022/04/15 04:05:47;;;;;;;80.75;54.33;;;18.80;58.40;;;;;;4947712;28;91282;-33
2022/04/15 04:08:14;;;;;;;80.95;54.00;;;18.80;58.40;;;;;;4948108;28;90001;-34
2022/04/15 04:10:40;;;;;;;80.38;53.95;;;18.80;58.40;;;;;;4951532;28;89677;-33
2022/04/15 04:13:06;;;;;;;80.13;53.65;;;18.70;58.30;;;;;;4948462;28;94229;-34
2022/04/15 04:15:32;;;;;;;79.30;53.58;;;18.80;58.40;;;;;;4949888;28;90888;-34
2022/04/15 04:17:58;;;;;;;83.70;54.58;;;18.70;58.30;;;;;;4948893;28;90245;-34
2022/04/15 04:20:24;;;;;;;80.07;54.05;;;18.70;58.40;;;;;;4943637;28;95492;-34
2022/04/15 04:22:50;;;;;;;82.15;55.17;;;18.70;58.30;;;;;;4945967;28;90219;-34
2022/04/15 04:25:16;;;;;;;83.07;54.40;;;18.70;58.30;;;;;;4958107;28;89684;-33
2022/04/15 04:27:43;;;;;;;79.95;53.90;;;18.70;58.30;;;;;;4942121;28;95007;-34
2022/04/15 04:30:12;;;;;;;81.82;55.13;;;18.70;58.30;;;;;;4950254;28;90635;-33
2022/04/15 04:32:38;;;;;;;80.78;54.17;;;18.70;58.40;;;;;;4947367;28;91491;-34
2022/04/15 04:35:05;;;;;;;82.38;55.65;;;18.70;58.30;;;;;;4950287;28;91467;-34
2022/04/15 04:37:32;;;;;;;81.53;54.33;;;18.70;58.30;;;;;;4952402;28;91627;-34
2022/04/15 04:39:58;;;;;;;80.05;53.97;;;18.70;58.30;;;;;;4950056;28;89847;-33
2022/04/15 04:42:24;;;;;;;82.88;55.47;;;18.70;58.30;;;;;;4951029;28;90497;-34
2022/04/15 04:44:51;;;;;;;80.47;54.10;;;18.70;58.40;;;;;;4944615;28;90408;-33
2022/04/15 04:47:20;;;;;;;85.35;55.42;;;18.70;58.30;;;;;;4944370;28;89216;-33
2022/04/15 04:49:45;;;;;;;83.80;54.42;;;18.70;58.40;;;;;;4940388;28;90391;-34
2022/04/15 04:52:11;;;;;;;82.68;55.38;;;18.70;58.40;;;;;;4935824;28;90603;-34
2022/04/15 04:54:37;;;;;;;84.65;55.72;;;18.70;58.50;;;;;;4953346;28;92550;-33
2022/04/15 04:57:03;;;;;;;86.60;55.22;;;18.70;58.60;;;;;;4944474;28;91224;-33
2022/04/15 04:59:31;;;;;;;84.40;55.47;;;18.70;58.60;;;;;;4955180;28;89932;-33
2022/04/15 05:01:57;;;;;;;82.00;54.70;;;18.70;58.60;;;;;;4947455;28;89921;-33
2022/04/15 05:04:23;;;;;;;85.00;56.22;;;18.70;58.70;;;;;;4942878;28;90021;-33
2022/04/15 05:06:48;;;;;;;82.63;55.65;;;18.70;58.80;;;;;;4948929;28;90744;-33
2022/04/15 05:09:15;;;;;;;83.80;56.03;;;18.70;58.80;;;;;;4948126;28;89810;-35
2022/04/15 05:11:41;;;;;;;86.50;57.28;;;18.70;58.70;;;;;;4950062;28;89253;-33
2022/04/15 05:14:07;;;;;;;88.00;57.67;;;18.70;58.70;;;;;;4956605;28;91094;-34
2022/04/15 05:16:33;;;;;;;83.50;55.97;;;18.70;58.70;;;;;;4950824;28;89963;-34
2022/04/15 05:18:58;;;;;;;83.47;55.33;;;18.70;58.70;;;;;;4943034;28;91204;-33
2022/04/15 05:21:24;;;;;;;84.55;56.13;;;18.70;58.90;;;;;;4921862;28;89835;-34
2022/04/15 05:23:50;;;;;;;85.10;57.08;;;18.70;59.10;;;;;;4944955;28;90985;-31
2022/04/15 05:26:16;;;;;;;85.50;56.70;;;18.70;59.10;;;;;;4957729;28;89742;-33
2022/04/15 05:28:42;;;;;;;85.00;56.47;;;18.70;59.10;;;;;;4950082;28;89563;-32
2022/04/15 05:31:08;;;;;;;84.20;56.17;;;18.70;59.10;;;;;;4952764;28;89840;-32
2022/04/15 05:33:34;;;;;;;85.47;57.15;;;18.60;59.00;;;;;;4948144;28;92216;-33
2022/04/15 05:36:00;;;;;;;85.38;55.97;;;18.70;59.00;;;;;;4951604;28;90357;-33
2022/04/15 05:38:25;;;;;;;85.03;56.00;;;18.60;58.90;;;;;;4951871;28;89955;-33
2022/04/15 05:40:51;;;;;;;82.97;55.92;;;18.60;58.90;;;;;;4950819;28;90312;-33
2022/04/15 05:43:17;;;;;;;83.28;56.10;;;18.60;58.90;;;;;;4946057;28;91283;-33
2022/04/15 05:45:42;;;;;;;83.72;56.28;;;18.60;58.90;;;;;;4957421;28;91092;-33
2022/04/15 05:48:08;;;;;;;84.00;56.53;;;18.70;58.90;;;;;;4954949;28;89694;-33
2022/04/15 05:50:34;;;;;;;85.22;56.75;;;18.60;58.90;;;;;;4949970;28;90021;-33
2022/04/15 05:53:00;;;;;;;82.85;56.13;;;18.70;58.90;;;;;;4953319;28;92565;-33
2022/04/15 05:55:25;;;;;;;84.75;56.80;;;18.60;58.80;;;;;;4955385;28;90407;-33
2022/04/15 05:57:51;;;;;;;85.60;57.35;;;18.60;58.80;;;;;;4950649;28;89707;-33
2022/04/15 06:00:17;;;;;;;87.30;56.33;;;18.60;58.70;;;;;;4955981;28;89763;-32
2022/04/15 06:02:43;;;;;;;84.95;56.10;;;18.60;58.70;;;;;;4949168;28;93376;-33
2022/04/15 06:05:09;;;;;;;82.00;55.83;;;18.60;58.70;;;;;;4945923;28;90040;-34
2022/04/15 06:07:35;;;;;;;84.60;56.33;;;18.60;58.70;;;;;;4951454;28;91210;-33
2022/04/15 06:10:01;;;;;;;84.57;56.67;;;18.60;58.60;;;;;;4951152;28;90258;-33
2022/04/15 06:15:20;;;;;;;85.57;57.33;;;18.60;58.60;;;;;;4956905;28;89891;-33
2022/04/15 06:17:46;;;;;;;83.45;57.25;;;18.60;58.70;;;;;;4946234;28;89816;-33
2022/04/15 06:20:12;;;;;;;86.07;56.75;;;18.60;58.60;;;;;;4946342;28;95831;-33
2022/04/15 06:22:40;;;;;;;87.80;57.50;;;18.60;58.60;;;;;;4948089;28;89793;-33
2022/04/15 06:25:06;;;;;;;86.32;58.05;;;18.60;58.60;;;;;;4955689;28;89775;-33
2022/04/15 06:27:32;;;;;;;89.55;57.60;;;18.60;58.70;;;;;;4954259;28;89907;-33
2022/04/15 06:29:57;;;;;;;86.30;58.00;;;18.60;58.70;;;;;;4960773;28;89827;-33
2022/04/15 06:32:23;;;;;;;84.75;57.10;;;18.70;58.80;;;;;;4955186;28;91341;-33
2022/04/15 06:34:49;;;;;;;86.97;57.15;;;18.70;58.80;;;;;;4938616;28;91260;-33
2022/04/15 06:37:14;;;;;;;89.47;60.00;;;18.70;58.80;;;;;;4951719;28;90378;-33
2022/04/15 06:39:40;;;;;;;92.85;58.70;;;18.70;59.00;;;;;;4950276;28;92070;-33
2022/04/15 06:42:06;;;;;;;98.57;60.17;;;18.70;59.00;;;;;;4952640;28;90688;-33
2022/04/15 06:44:35;;;;;;;89.55;58.25;;;18.70;59.20;;;;;;4949332;28;97374;-34
2022/04/15 06:47:01;;;;;;;89.28;58.83;;;18.70;59.30;;;;;;4941720;28;89566;-33
2022/04/15 06:49:27;;;;;;;87.43;57.90;;;18.70;59.30;;;;;;4940773;28;89835;-33
2022/04/15 06:51:52;;;;;;;92.90;58.47;;;18.70;59.50;;;;;;4948853;28;92630;-33
2022/04/15 06:54:18;;;;;;;93.63;58.28;;;18.70;59.70;;;;;;4950193;28;91515;-33
2022/04/15 06:56:44;;;;;;;96.88;58.58;;;18.70;60.10;;;;;;4949224;28;92253;-33
2022/04/15 06:59:10;;;;;;;97.70;59.05;;;18.70;60.20;;;;;;4949297;28;91304;-33
2022/04/15 07:01:35;;;;;;;96.15;59.97;;;18.70;60.30;;;;;;4946949;28;92473;-33
2022/04/15 07:04:02;;;;;;;100.47;60.08;;;18.70;60.20;;;;;;4937102;28;90027;-33
2022/04/15 07:06:28;;;;;;;96.70;60.05;;;18.70;60.20;;;;;;4945305;28;89937;-33
2022/04/15 07:08:54;;;;;;;100.80;62.50;;;18.70;60.20;;;;;;4946399;28;90971;-33
2022/04/15 07:11:20;;;;;;;102.65;61.75;;;18.70;60.10;;;;;;4940945;28;90433;-33
2022/04/15 07:13:46;;;;;;;108.47;61.80;;;18.80;60.10;;;;;;4941885;28;90095;-33
2022/04/15 07:16:13;;;;;;;104.80;61.70;;;18.80;60.10;;;;;;4955314;28;90057;-33
2022/04/15 07:18:38;;;;;;;108.45;62.72;;;18.80;60.10;;;;;;4950144;28;89980;-33
2022/04/15 07:21:04;;;;;;;102.22;61.80;;;18.80;60.20;;;;;;4942092;28;91337;-34
2022/04/15 07:23:30;;;;;;;106.60;62.30;;;18.80;60.20;;;;;;4941494;28;90799;-33
2022/04/15 07:25:55;;;;;;;106.97;62.95;;;18.80;60.10;;;;;;4942071;28;90496;-33
2022/04/15 07:28:21;;;;;;;103.28;62.13;;;18.80;60.00;;;;;;4948973;28;89948;-33
2022/04/15 07:30:46;;;;;;;104.97;63.28;;;18.80;60.00;;;;;;4948803;28;90262;-33
2022/04/15 07:33:12;;;;;;;103.40;62.95;;;18.80;60.00;;;;;;4946701;28;90368;-33
2022/04/15 07:35:38;;;;;;;103.93;63.58;;;18.80;59.90;;;;;;4943594;28;95237;-34
2022/04/15 07:38:03;;;;;;;103.20;63.15;;;18.80;59.90;;;;;;4942077;28;89245;-33
2022/04/15 07:40:29;;;;;;;101.20;62.70;;;18.80;60.00;;;;;;4935239;28;90888;-33
2022/04/15 07:42:59;;;;;;;98.78;62.85;;;18.80;60.50;;;;;;4943889;28;90086;-33
2022/04/15 07:45:25;;;;;;;103.45;63.75;;;18.80;59.80;;;;;;4939375;28;91567;-33
2022/04/15 07:47:50;;;;;;;104.80;64.60;;;18.80;59.70;;;;;;4945728;28;89836;-33
2022/04/15 07:50:22;;;;;;;99.55;64.22;;;18.90;59.70;;;;;;4942163;28;91305;-33
2022/04/15 07:52:47;;;;;;;102.90;63.85;;;18.90;59.70;;;;;;4947295;28;90255;-33
2022/04/15 07:55:13;;;;;;;106.38;65.05;;;18.90;59.70;;;;;;4943931;28;90053;-32
2022/04/15 07:57:39;;;;;;;122.75;68.68;;;18.90;59.90;;;;;;4947370;28;90585;-33
2022/04/15 08:00:05;;;;;;;126.50;69.70;;;18.90;60.00;;;;;;4943274;28;92423;-33
2022/04/15 08:02:31;;;;;;;122.72;68.82;;;18.90;60.30;;;;;;4942847;28;89392;-33
2022/04/15 08:04:56;;;;;;;123.72;70.75;;;18.90;60.50;;;;;;4944687;28;89913;-33
2022/04/15 08:07:24;;;;;;;118.13;68.78;;;19.00;60.60;;;;;;4944620;28;89897;-33
2022/04/15 08:09:50;;;;;;;116.05;69.43;;;19.00;60.50;;;;;;4942248;28;91312;-33
2022/04/15 08:12:16;;;;;;;118.32;70.22;;;19.00;60.40;;;;;;4916247;28;90556;-33
2022/04/15 08:14:41;;;;;;;123.13;69.82;;;19.00;61.00;;;;;;4941191;28;91877;-33
2022/04/15 08:17:07;;;;;;;127.32;69.65;;;19.00;61.30;;;;;;4936549;28;90976;-33
2022/04/15 08:19:33;;;;;;;120.82;69.90;;;19.00;61.50;;;;;;4939533;28;90738;-35
2022/04/15 08:21:59;;;;;;;109.03;72.50;;;19.10;61.60;;;;;;4923400;28;93767;-33
2022/04/15 08:24:25;;;;;;;107.38;71.75;;;18.90;58.90;;;;;;4939051;28;97066;-32
2022/04/15 08:26:54;;;;;;;103.60;69.63;;;18.60;59.30;;;;;;4948093;28;89776;-33
2022/04/15 08:29:20;;;;;;;103.13;68.22;;;18.50;59.50;;;;;;4944850;28;91731;-33
2022/04/15 08:31:46;;;;;;;106.18;66.47;;;18.50;59.00;;;;;;4946402;28;90975;-33
2022/04/15 08:34:11;;;;;;;106.50;69.78;;;18.50;60.00;;;;;;4954328;28;91368;-33
2022/04/15 08:36:37;;;;;;;107.88;68.90;;;18.60;59.50;;;;;;4952124;28;90961;-33
2022/04/15 08:39:02;;;;;;;102.72;69.20;;;18.50;59.10;;;;;;4959455;28;89978;-33
2022/04/15 08:41:33;;;;;;;100.18;67.15;;;18.40;59.30;;;;;;4953817;28;90520;-33
2022/04/15 08:44:00;;;;;;;100.53;67.43;;;18.40;59.30;;;;;;4958475;28;90882;-33
2022/04/15 08:46:28;;;;;;;101.82;69.50;;;18.30;59.10;;;;;;4947020;28;90208;-34
2022/04/15 08:48:54;;;;;;;100.15;65.68;;;18.30;58.80;;;;;;4954943;28;89800;-34
2022/04/15 08:51:20;;;;;;;104.78;65.32;;;18.30;59.20;;;;;;4945959;28;89847;-34
2022/04/15 08:53:48;;;;;;;99.85;68.45;;;18.40;60.00;;;;;;4946796;28;95219;-34
2022/04/15 08:56:14;;;;;;;96.45;64.88;;;18.50;59.10;;;;;;4952641;28;89766;-34
2022/04/15 08:58:40;;;;;;;101.88;66.05;;;18.50;58.30;;;;;;4952382;28;91467;-34
2022/04/15 09:01:07;;;;;;;97.25;64.70;;;18.40;57.90;;;;;;4953084;28;91673;-34
2022/04/15 09:03:34;;;;;;;97.75;64.38;;;18.40;57.80;;;;;;4956970;28;90052;-34
2022/04/15 09:06:00;;;;;;;98.15;65.65;;;18.40;57.10;;;;;;4950304;28;89569;-34
2022/04/15 09:08:26;;;;;;;96.63;63.45;;;18.40;58.40;;;;;;4949197;28;90209;-34
2022/04/15 09:10:59;;;;;;;95.95;63.90;;;18.50;58.70;;;;;;4957272;28;89900;-33
2022/04/15 09:13:31;;;;;;;96.10;63.08;;;18.50;57.30;;;;;;4956097;28;89663;-33
2022/04/15 09:16:00;;;;;;;94.47;63.75;;;18.50;57.70;;;;;;4930175;28;89887;-34
2022/04/15 09:18:36;;;;;;;96.15;63.17;;;18.50;57.50;;;;;;4945338;28;90084;-34
2022/04/15 09:21:21;;;;;;;95.35;62.63;;;18.50;58.00;;;;;;4945223;28;90382;-34
2022/04/15 09:23:54;;;;;;;94.22;61.42;;;18.60;58.20;;;;;;4944837;28;91886;-34
2022/04/15 09:26:25;;;;;;;93.22;62.38;;;18.60;57.90;;;;;;4954421;28;90173;-33
2022/04/15 09:28:53;;;;;;;96.30;63.17;;;18.60;57.50;;;;;;4947105;28;89547;-34
2022/04/15 09:31:20;;;;;;;117.30;64.38;;;18.70;58.10;;;;;;4942644;28;91480;-34
2022/04/15 09:33:57;;;;;;;93.90;61.15;;;18.80;57.80;;;;;;4954360;28;89842;-34
2022/04/15 09:36:27;;;;;;;94.57;61.15;;;18.70;57.70;;;;;;4946078;28;90358;-34
2022/04/15 09:39:14;;;;;;;96.18;61.28;;;18.80;57.70;;;;;;4946065;28;90300;-34
2022/04/15 09:41:48;;;;;;;95.40;59.97;;;18.80;58.00;;;;;;4949719;28;89909;-34
2022/04/15 09:44:14;;;;;;;90.70;59.85;;;18.90;57.70;;;;;;4954990;28;90002;-34
2022/04/15 09:46:44;;;;;;;93.93;60.45;;;18.90;57.10;;;;;;4952785;28;91797;-34
2022/04/15 09:49:11;;;;;;;90.93;60.30;;;18.90;56.90;;;;;;4949227;28;91139;-34
2022/04/15 09:51:51;;;;;;;93.65;61.13;;;18.90;56.50;;;;;;4940858;28;91403;-34
2022/04/15 09:54:23;;;;;;;92.70;59.97;;;18.90;56.90;;;;;;4941396;28;91699;-34
2022/04/15 09:56:50;;;;;;;88.95;59.22;;;19.00;56.50;;;;;;4952798;28;89997;-34
2022/04/15 09:59:16;;;;;;;90.97;59.95;;;19.00;57.00;;;;;;4953487;28;89987;-34
2022/04/15 10:01:46;;;;;;;93.28;60.63;;;19.10;57.00;;;;;;4955334;28;89558;-34
2022/04/15 10:04:14;;;;;;;91.20;58.55;;;19.00;56.20;;;;;;4948559;28;90042;-34
2022/04/15 10:06:42;;;;;;;87.88;58.33;;;19.00;56.00;;;;;;4947053;28;89249;-34
2022/04/15 10:09:12;;;;;;;90.88;58.90;;;19.10;55.00;;;;;;4943116;28;90107;-35
2022/04/15 10:11:45;;;;;;;90.57;59.17;;;19.10;56.50;;;;;;4951909;28;91907;-34
2022/04/15 10:14:12;;;;;;;92.38;59.03;;;19.10;56.70;;;;;;4945895;28;91054;-35
2022/04/15 10:16:40;;;;;;;94.13;58.67;;;19.10;55.70;;;;;;4954565;28;89646;-37
2022/04/15 10:19:06;;;;;;;89.35;58.28;;;19.10;55.90;;;;;;4955296;28;90449;-34
2022/04/15 10:21:53;;;;;;;92.82;58.40;;;19.10;55.40;;;;;;4943250;28;92509;-34
2022/04/15 10:24:24;;;;;;;86.28;57.10;;;19.10;55.20;;;;;;4941815;28;91998;-35
2022/04/15 10:26:57;;;;;;;86.38;56.75;;;19.20;56.00;;;;;;4948446;28;90744;-34
2022/04/15 10:29:23;;;;;;;85.65;56.53;;;19.10;54.40;;;;;;4949083;28;89832;-34
2022/04/15 10:31:48;;;;;;;88.25;56.88;;;19.00;52.60;;;;;;4952156;28;89115;-34
2022/04/15 10:34:19;;;;;;;85.60;56.53;;;18.90;52.40;;;;;;4945851;28;90178;-34
2022/04/15 10:36:50;;;;;;;84.23;56.27;;;19.00;55.20;;;;;;4950402;28;90250;-34
2022/04/15 10:39:21;;;;;;;84.20;56.05;;;19.00;53.30;;;;;;4943742;28;95217;-34
2022/04/15 10:41:53;;;;;;;;;;;19.10;54.20;;;;;;4943504;28;91781;-35
2022/04/15 10:44:30;;;;;;;84.90;55.08;;;19.10;54.10;;;;;;4938183;28;91518;-34
2022/04/15 10:47:19;;;;;;;91.78;55.03;;;19.20;53.70;;;;;;4941803;28;90293;-34
2022/04/15 10:50:12;;;;;;;82.30;54.08;;;19.30;54.10;;;;;;4948653;28;90767;-34
2022/04/15 10:52:38;;;;;;;89.03;54.53;;;19.40;51.80;;;;;;4953044;28;89843;-34
2022/04/15 10:55:10;;;;;;;84.95;54.20;;;19.40;51.80;;;;;;4955227;28;89899;-34
2022/04/15 10:57:40;;;;;;;89.03;54.90;;;19.50;52.50;;;;;;4957233;28;89193;-34
2022/04/15 11:02:58;;;;;;;85.65;55.20;;;19.50;51.30;;;;;;4938371;28;90363;-33
2022/04/15 11:05:53;;;;;;;84.00;54.67;;;19.60;50.00;;;;;;4949984;28;91004;-33
2022/04/15 11:08:21;;;;;;;88.20;55.33;;;19.60;51.40;;;;;;4938531;28;91510;-34
2022/04/15 11:10:55;;;;;;;87.95;56.50;;;19.70;52.40;;;;;;4951053;28;89683;-34
2022/04/15 11:13:29;;;;;;;88.05;56.28;;;19.70;52.00;;;;;;4944159;28;95700;-34
2022/04/15 11:16:04;;;;;;;86.95;55.08;;;19.70;51.60;;;;;;4944851;28;89731;-34
2022/04/15 11:18:53;;;;;;;88.50;55.42;;;19.70;51.70;;;;;;4944425;28;89673;-34
2022/04/15 11:21:23;;;;;;;84.88;54.97;;;19.80;52.30;;;;;;4943256;28;89710;-33
2022/04/15 11:24:00;;;;;;;85.13;54.73;;;19.80;52.80;;;;;;4942890;28;90565;-34
2022/04/15 11:26:28;;;;;;;85.88;55.08;;;19.90;52.40;;;;;;4946475;28;91867;-33
2022/04/15 11:28:56;;;;;;;87.28;55.53;;;19.90;52.10;;;;;;4953398;28;89823;-34
2022/04/15 11:31:23;;;;;;;88.97;55.25;;;20.00;50.50;;;;;;4945321;28;91196;-33
2022/04/15 11:33:50;;;;;;;85.35;54.67;;;19.90;50.40;;;;;;4933601;28;90854;-34
2022/04/15 11:36:18;;;;;;;84.55;54.55;;;20.00;52.00;;;;;;4937531;28;90874;-33
2022/04/15 11:38:45;;;;;;;85.15;55.28;;;20.00;52.20;;;;;;4939603;28;90298;-34
2022/04/15 11:41:21;;;;;;;88.40;55.28;;;20.00;51.00;;;;;;4943505;28;90532;-33
2022/04/15 11:43:59;;;;;;;86.88;55.10;;;20.00;52.90;;;;;;4938333;28;89733;-33
2022/04/15 11:46:26;;;;;;;87.53;54.97;;;20.00;51.30;;;;;;4944409;28;90023;-34
2022/04/15 11:48:55;;;;;;;87.82;54.92;;;20.00;51.40;;;;;;4940186;28;90691;-35
2022/04/15 11:51:22;;;;;;;87.10;54.80;;;20.00;51.70;;;;;;4933862;28;90090;-35
2022/04/15 11:53:49;;;;;;;85.80;54.83;;;20.10;51.40;;;;;;4941663;28;90022;-35
2022/04/15 11:56:16;;;;;;;86.68;54.80;;;20.10;52.00;;;;;;4941543;28;91399;-34
2022/04/15 11:58:45;;;;;;;87.18;54.90;;;20.10;50.00;;;;;;4944822;28;89803;-34
2022/04/15 12:01:11;;;;;;;85.97;54.78;;;20.20;50.90;;;;;;4945460;28;90679;-35
2022/04/15 12:03:43;;;;;;;89.65;54.97;;;20.20;50.00;;;;;;4934473;28;90585;-35
2022/04/15 12:06:09;;;;;;;84.88;54.80;;;20.20;49.60;;;;;;4945343;28;89707;-34
2022/04/15 12:08:35;;;;;;;85.80;55.30;;;20.30;51.20;;;;;;4948566;28;90078;-34
2022/04/15 12:11:02;;;;;;;85.72;54.97;;;20.30;50.70;;;;;;4941995;28;90525;-34
2022/04/15 12:13:28;;;;;;;85.32;55.15;;;20.30;50.50;;;;;;4934195;28;90580;-34
2022/04/15 12:15:54;;;;;;;85.47;54.85;;;20.30;49.10;;;;;;4936972;28;90547;-35
2022/04/15 12:18:19;;;;;;;96.38;55.03;;;20.40;50.40;;;;;;4937600;28;90191;-34
2022/04/15 12:20:45;;;;;;;87.57;54.90;;;20.40;51.40;;;;;;4939246;28;95487;-34
2022/04/15 12:23:16;;;;;;;93.03;55.17;;;20.50;52.60;;;;;;4942819;28;90799;-34
2022/04/15 12:31:32;;;;;;;95.40;55.90;;;20.60;54.70;;;;;;4947235;28;90402;-33
2022/04/15 12:34:03;;;;;;;88.30;54.78;;;20.70;55.10;;;;;;4952537;28;90060;-32
2022/04/15 12:36:48;;;;;;;90.22;55.30;;;20.70;55.20;;;;;;4950410;28;90505;-33
2022/04/15 12:39:14;;;;;;;89.50;55.10;;;20.70;55.40;;;;;;4954580;28;89073;-33